Time;durP1;ratioP1;P1;durP2;ratioP2;P2;SDS_P1;SDS_P2;PMS_P1;PMS_P2;Temp;Humidity;BMP_temperature;BMP_pressure;BME280_temperature;BME280_humidity;BME280_pressure;Samples;Min_cycle;Max_cycle;Signal;HPM_P1;HPM_P2
2024/04/03 00:02:19;;;;;;;4.28;1.67;;;11.50;99.90;;;;;;4974815;28;20398;-47
2024/04/03 00:04:44;;;;;;;4.13;1.50;;;11.50;99.90;;;;;;4991863;28;20065;-48
2024/04/03 00:07:10;;;;;;;10.90;3.45;;;11.50;99.90;;;;;;4991641;28;20481;-48
2024/04/03 00:09:35;;;;;;;5.97;1.60;;;11.40;99.90;;;;;;4992160;28;20015;-49
2024/04/03 00:12:01;;;;;;;6.88;1.75;;;11.40;99.90;;;;;;4977817;28;20034;-49
2024/04/03 00:14:26;;;;;;;8.55;2.28;;;11.40;99.90;;;;;;4977917;28;20023;-46
2024/04/03 00:16:52;;;;;;;4.97;1.92;;;11.40;99.90;;;;;;4995187;28;20157;-46
2024/04/03 00:19:17;;;;;;;4.45;1.33;;;11.50;99.90;;;;;;4994794;28;20502;-51
2024/04/03 00:21:43;;;;;;;6.50;1.30;;;11.50;99.90;;;;;;4995234;28;20456;-46
2024/04/03 00:24:09;;;;;;;5.53;1.42;;;11.40;99.90;;;;;;4977570;28;20030;-45
2024/04/03 00:26:34;;;;;;;6.00;1.50;;;11.40;99.90;;;;;;4995041;28;20026;-49
2024/04/03 00:29:00;;;;;;;5.15;1.48;;;11.40;99.90;;;;;;4994629;28;20113;-47
2024/04/03 00:31:25;;;;;;;6.55;1.85;;;11.40;99.90;;;;;;4995041;28;20070;-51
2024/04/03 00:33:51;;;;;;;3.22;1.38;;;11.40;99.90;;;;;;4994817;28;20026;-46
2024/04/03 00:36:16;;;;;;;6.28;1.63;;;11.40;99.90;;;;;;4994869;28;20022;-46
2024/04/03 00:38:42;;;;;;;9.98;2.85;;;11.40;99.90;;;;;;4994450;28;20576;-49
2024/04/03 00:41:07;;;;;;;7.47;1.95;;;11.30;99.90;;;;;;4994577;28;20034;-47
2024/04/03 00:43:33;;;;;;;7.82;1.65;;;11.20;99.90;;;;;;4994582;28;20454;-46
2024/04/03 00:46:00;;;;;;;13.90;3.50;;;11.20;99.90;;;;;;4996245;28;20521;-44
2024/04/03 00:48:26;;;;;;;7.53;1.73;;;11.20;99.90;;;;;;4995874;28;20049;-47
2024/04/03 00:50:55;;;;;;;7.30;1.75;;;11.20;99.90;;;;;;4995246;28;20505;-47
2024/04/03 00:53:22;;;;;;;5.80;1.60;;;11.10;99.90;;;;;;4994539;28;20145;-45
2024/04/03 00:55:47;;;;;;;6.03;1.98;;;11.10;99.90;;;;;;4976888;28;20054;-47
2024/04/03 00:58:13;;;;;;;6.53;1.63;;;11.10;99.90;;;;;;4993956;28;20501;-47
2024/04/03 01:00:38;;;;;;;3.42;1.17;;;11.10;99.90;;;;;;4994388;28;20137;-46
2024/04/03 01:03:05;;;;;;;8.38;1.67;;;11.10;99.90;;;;;;4994415;28;20342;-48
2024/04/03 01:05:31;;;;;;;5.15;1.75;;;11.10;99.90;;;;;;4994502;28;20092;-47
2024/04/03 01:07:57;;;;;;;5.38;1.40;;;11.10;99.90;;;;;;4993992;28;20034;-46
2024/04/03 01:10:23;;;;;;;9.05;1.90;;;11.10;99.90;;;;;;4976912;28;20370;-50
2024/04/03 01:12:50;;;;;;;13.82;2.20;;;11.20;99.90;;;;;;4994323;28;20030;-48
2024/04/03 01:15:15;;;;;;;6.15;2.15;;;11.10;99.90;;;;;;4994014;28;20027;-48
2024/04/03 01:17:41;;;;;;;3.67;1.88;;;11.20;99.90;;;;;;4993650;28;20424;-48
2024/04/03 01:20:07;;;;;;;17.35;4.05;;;11.20;99.90;;;;;;4976640;28;20069;-47
2024/04/03 01:22:33;;;;;;;4.43;2.25;;;11.10;99.90;;;;;;4993966;28;20086;-46
2024/04/03 01:24:58;;;;;;;8.68;2.55;;;11.10;99.90;;;;;;4993749;28;20109;-48
2024/04/03 01:27:24;;;;;;;3.22;1.58;;;11.10;99.90;;;;;;4993580;28;20114;-46
2024/04/03 01:29:50;;;;;;;4.47;2.17;;;11.10;99.90;;;;;;4976151;28;20026;-45
2024/04/03 01:32:15;;;;;;;8.00;1.92;;;11.10;99.90;;;;;;4993732;28;20109;-42
2024/04/03 01:34:41;;;;;;;10.68;2.58;;;11.20;99.90;;;;;;4993542;28;20037;-47
2024/04/03 01:37:08;;;;;;;6.53;1.70;;;11.20;99.90;;;;;;4993851;28;20030;-48
2024/04/03 01:39:33;;;;;;;5.45;2.33;;;11.20;99.90;;;;;;4993291;28;20486;-47
2024/04/03 01:41:59;;;;;;;8.23;2.13;;;11.10;99.90;;;;;;4993441;28;20110;-45
2024/04/03 01:44:24;;;;;;;4.55;1.60;;;11.20;99.90;;;;;;4993300;28;20026;-53
2024/04/03 01:46:50;;;;;;;7.10;2.15;;;11.20;99.90;;;;;;4993312;28;20416;-47
2024/04/03 01:49:15;;;;;;;4.78;1.98;;;11.20;99.90;;;;;;4992914;28;20458;-43
2024/04/03 01:51:41;;;;;;;6.88;2.58;;;11.10;99.90;;;;;;4993289;28;20030;-48
2024/04/03 01:54:06;;;;;;;6.15;2.00;;;11.10;99.90;;;;;;4993185;28;20478;-46
2024/04/03 01:56:32;;;;;;;6.60;2.53;;;11.10;99.90;;;;;;4992999;28;20042;-48
2024/04/03 01:58:57;;;;;;;10.25;2.17;;;11.10;99.90;;;;;;4992706;28;20031;-48
2024/04/03 02:01:23;;;;;;;10.57;3.88;;;11.10;99.90;;;;;;4993067;28;20482;-51
2024/04/03 02:03:48;;;;;;;8.23;2.10;;;11.00;99.90;;;;;;4993040;28;20030;-48
2024/04/03 02:06:14;;;;;;;7.43;2.40;;;11.00;99.90;;;;;;4993242;28;20473;-48
2024/04/03 02:08:39;;;;;;;11.82;2.20;;;11.00;99.90;;;;;;4992627;28;20026;-46
2024/04/03 02:11:05;;;;;;;6.95;2.08;;;11.00;99.90;;;;;;4992772;28;20126;-50
2024/04/03 02:13:30;;;;;;;6.03;2.00;;;10.90;99.90;;;;;;4992824;28;20490;-48
2024/04/03 02:15:56;;;;;;;8.00;3.75;;;10.80;99.90;;;;;;4992850;28;20498;-47
2024/04/03 02:18:22;;;;;;;7.38;2.13;;;10.80;99.90;;;;;;4974792;28;20041;-48
2024/04/03 02:20:47;;;;;;;8.52;2.53;;;10.80;99.90;;;;;;4993111;28;20026;-45
2024/04/03 02:23:13;;;;;;;9.20;2.30;;;10.80;99.90;;;;;;4992714;28;20111;-46
2024/04/03 02:25:40;;;;;;;5.80;2.45;;;10.80;99.90;;;;;;4992668;28;20022;-45
2024/04/03 02:28:06;;;;;;;12.40;2.80;;;10.70;99.90;;;;;;4992118;28;20362;-49
2024/04/03 02:30:31;;;;;;;11.02;2.33;;;10.60;99.90;;;;;;4992615;28;20030;-46
2024/04/03 02:32:57;;;;;;;7.40;2.50;;;10.70;99.90;;;;;;4992112;28;20038;-47
2024/04/03 02:35:22;;;;;;;7.53;2.13;;;10.70;99.90;;;;;;4993190;28;20022;-49
2024/04/03 02:37:48;;;;;;;7.40;3.15;;;10.70;99.90;;;;;;4993384;28;20031;-46
2024/04/03 02:40:14;;;;;;;7.07;2.38;;;10.70;99.90;;;;;;4993525;28;20113;-48
2024/04/03 02:42:40;;;;;;;8.00;2.53;;;10.70;99.90;;;;;;4992618;28;20030;-46
2024/04/03 02:45:06;;;;;;;8.23;2.53;;;10.70;99.90;;;;;;4992446;28;20117;-45
2024/04/03 02:47:31;;;;;;;6.80;2.30;;;10.70;99.90;;;;;;4991846;28;20105;-45
2024/04/03 02:49:57;;;;;;;3.22;1.65;;;10.70;99.90;;;;;;4992268;28;20031;-47
2024/04/03 02:52:22;;;;;;;6.18;1.90;;;10.70;99.90;;;;;;4992302;28;20026;-45
2024/04/03 02:54:48;;;;;;;5.70;2.10;;;10.70;99.90;;;;;;4992356;28;20168;-46
2024/04/03 02:57:15;;;;;;;6.88;2.10;;;10.80;99.90;;;;;;4992107;28;20038;-47
2024/04/03 02:59:42;;;;;;;5.38;2.05;;;10.70;99.90;;;;;;4991868;28;20438;-45
2024/04/03 03:02:07;;;;;;;4.68;1.80;;;10.70;99.90;;;;;;4992053;28;20026;-46
2024/04/03 03:04:43;;;;;;;5.68;2.20;;;10.70;99.90;;;;;;4992094;28;20039;-46
2024/04/03 03:07:09;;;;;;;4.78;1.98;;;10.70;99.90;;;;;;4991941;28;20022;-46
2024/04/03 03:09:35;;;;;;;6.82;1.75;;;10.70;99.90;;;;;;4991832;28;20022;-44
2024/04/03 03:12:01;;;;;;;8.90;2.50;;;10.80;99.90;;;;;;4992361;28;20033;-45
2024/04/03 03:14:27;;;;;;;6.93;2.00;;;10.80;99.90;;;;;;4992243;28;20030;-52
2024/04/03 03:16:52;;;;;;;5.93;2.10;;;10.80;99.90;;;;;;4993113;28;20030;-53
2024/04/03 03:19:18;;;;;;;5.88;2.78;;;10.80;99.90;;;;;;4992487;28;20521;-48
2024/04/03 03:21:43;;;;;;;7.68;2.72;;;10.80;99.90;;;;;;4992650;28;20090;-46
2024/04/03 03:24:09;;;;;;;6.32;2.25;;;10.80;99.90;;;;;;4992107;28;20034;-50
2024/04/03 03:26:34;;;;;;;8.20;2.90;;;10.80;99.90;;;;;;4991779;28;20049;-48
2024/04/03 03:28:59;;;;;;;7.30;2.58;;;10.90;99.90;;;;;;4992245;28;20062;-45
2024/04/03 03:31:27;;;;;;;5.30;2.00;;;10.80;99.90;;;;;;4992932;28;20073;-48
2024/04/03 03:33:52;;;;;;;5.60;2.28;;;10.80;99.90;;;;;;4992363;28;20018;-48
2024/04/03 03:36:18;;;;;;;6.13;1.92;;;10.80;99.90;;;;;;4991899;28;20401;-46
2024/04/03 03:38:43;;;;;;;5.93;1.90;;;10.80;99.90;;;;;;4991540;28;20026;-46
2024/04/03 03:41:09;;;;;;;5.63;2.08;;;10.80;99.90;;;;;;4992155;28;20363;-48
2024/04/03 03:43:34;;;;;;;5.43;2.30;;;10.80;99.90;;;;;;4991870;28;20030;-46
2024/04/03 03:46:00;;;;;;;3.63;2.13;;;10.80;99.90;;;;;;4994531;28;20092;-47
2024/04/03 03:53:59;;;;;;;5.45;1.95;;;10.70;99.90;;;;;;4995784;28;20084;-49
2024/04/03 03:56:24;;;;;;;7.30;2.05;;;10.60;99.90;;;;;;4995337;28;20030;-49
2024/04/03 03:58:51;;;;;;;7.05;2.13;;;10.60;99.90;;;;;;4994813;28;20045;-45
2024/04/03 04:01:16;;;;;;;5.38;2.30;;;10.50;99.90;;;;;;4995339;28;20048;-51
2024/04/03 04:03:42;;;;;;;10.82;3.03;;;10.60;99.90;;;;;;4995196;28;20522;-49
2024/04/03 04:06:07;;;;;;;11.77;2.38;;;10.60;99.90;;;;;;4995113;28;20036;-45
2024/04/03 04:08:33;;;;;;;5.45;2.65;;;10.50;99.90;;;;;;4994831;28;20035;-45
2024/04/03 04:11:00;;;;;;;12.60;2.45;;;10.50;99.90;;;;;;4995532;28;20437;-45
2024/04/03 04:13:26;;;;;;;9.18;2.05;;;10.50;99.90;;;;;;4995655;28;20018;-43
2024/04/03 04:15:52;;;;;;;8.65;2.22;;;10.50;99.90;;;;;;4995305;28;20153;-44
2024/04/03 04:18:18;;;;;;;7.70;2.25;;;10.50;99.90;;;;;;4977057;28;20031;-46
2024/04/03 04:20:52;;;;;;;4.97;2.13;;;10.50;99.90;;;;;;4994867;28;20371;-45
2024/04/03 04:23:17;;;;;;;3.13;2.00;;;10.50;99.90;;;;;;4994844;28;20037;-46
2024/04/03 04:25:53;;;;;;;7.80;1.85;;;10.50;99.90;;;;;;4995581;28;20026;-47
2024/04/03 04:28:19;;;;;;;3.80;1.90;;;10.50;99.90;;;;;;4994737;28;20085;-46
2024/04/03 04:30:45;;;;;;;4.47;1.90;;;10.50;99.90;;;;;;4995188;28;20030;-46
2024/04/03 04:33:10;;;;;;;5.95;2.05;;;10.60;99.90;;;;;;4995023;28;20019;-45
2024/04/03 04:35:36;;;;;;;5.18;1.42;;;10.50;99.90;;;;;;4995725;28;20467;-50
2024/04/03 04:38:01;;;;;;;5.97;1.70;;;10.50;99.90;;;;;;4998255;28;20038;-46
2024/04/03 04:40:27;;;;;;;5.15;1.42;;;10.50;99.90;;;;;;4997212;28;20462;-47
2024/04/03 04:42:53;;;;;;;4.00;2.38;;;10.60;99.90;;;;;;4997557;28;20093;-50
2024/04/03 04:45:18;;;;;;;5.95;1.83;;;10.60;99.90;;;;;;4996176;28;20026;-45
2024/04/03 04:47:46;;;;;;;4.05;2.20;;;10.60;99.90;;;;;;4994042;28;20034;-45
2024/04/03 04:50:11;;;;;;;2.72;1.83;;;10.70;99.90;;;;;;4994352;28;20058;-46
2024/04/03 04:52:41;;;;;;;5.93;1.63;;;10.60;99.90;;;;;;4994292;28;20108;-45
2024/04/03 04:55:07;;;;;;;2.30;1.92;;;10.70;99.90;;;;;;4993931;28;20490;-44
2024/04/03 04:57:32;;;;;;;6.78;1.85;;;10.70;99.90;;;;;;4993801;28;20355;-43
2024/04/03 04:59:58;;;;;;;5.03;2.00;;;10.70;99.90;;;;;;4994703;28;20030;-47
2024/04/03 05:02:23;;;;;;;6.05;1.90;;;10.70;99.90;;;;;;4994362;28;20506;-47
2024/04/03 05:04:49;;;;;;;10.35;1.90;;;10.70;99.90;;;;;;4994390;28;20466;-44
2024/04/03 05:07:15;;;;;;;3.33;1.42;;;10.70;99.90;;;;;;4993864;28;20105;-47
2024/04/03 05:09:40;;;;;;;3.38;1.77;;;10.70;99.90;;;;;;4993819;28;20030;-47
2024/04/03 05:12:06;;;;;;;6.15;1.77;;;10.70;99.90;;;;;;4976721;28;20030;-47
2024/04/03 05:14:31;;;;;;;5.85;1.55;;;10.70;99.90;;;;;;4993995;28;20030;-45
2024/04/03 05:16:57;;;;;;;7.55;1.92;;;10.70;99.90;;;;;;4994188;28;20034;-45
2024/04/03 05:19:22;;;;;;;10.02;1.83;;;10.70;99.90;;;;;;4994227;28;20498;-46
2024/04/03 05:21:48;;;;;;;7.93;2.40;;;10.70;99.90;;;;;;4993912;28;20042;-48
2024/04/03 05:24:14;;;;;;;2.78;1.48;;;10.70;99.90;;;;;;4993816;28;20066;-48
2024/04/03 05:26:39;;;;;;;4.82;1.52;;;10.70;99.90;;;;;;4993990;28;20080;-49
2024/04/03 05:29:05;;;;;;;8.38;2.03;;;10.70;99.90;;;;;;4993354;28;20482;-49
2024/04/03 05:31:32;;;;;;;3.88;1.80;;;10.70;99.90;;;;;;4993756;28;20026;-46
2024/04/03 05:34:01;;;;;;;7.60;1.85;;;10.80;99.90;;;;;;4993611;28;20041;-50
2024/04/03 05:36:27;;;;;;;10.65;1.85;;;10.80;99.90;;;;;;4993387;28;20033;-50
2024/04/03 05:38:52;;;;;;;5.72;2.10;;;10.80;99.90;;;;;;4993131;28;20026;-49
2024/04/03 05:41:18;;;;;;;4.03;1.73;;;10.80;99.90;;;;;;4993993;28;20037;-49
2024/04/03 05:43:43;;;;;;;3.15;1.63;;;10.70;99.90;;;;;;4993547;28;20026;-50
2024/04/03 05:46:09;;;;;;;5.22;1.80;;;10.70;99.90;;;;;;4993354;28;20117;-53
2024/04/03 05:48:34;;;;;;;1.70;1.13;;;10.70;99.90;;;;;;4993137;28;20409;-47
2024/04/03 05:51:02;;;;;;;7.20;1.70;;;10.70;99.90;;;;;;4993158;28;20400;-45
2024/04/03 05:53:27;;;;;;;2.63;1.58;;;10.70;99.90;;;;;;4993190;28;20046;-47
2024/04/03 05:55:57;;;;;;;6.65;1.95;;;10.70;99.90;;;;;;4993204;28;20397;-49
2024/04/03 05:58:23;;;;;;;3.75;1.92;;;10.70;99.90;;;;;;4992813;28;20021;-49
2024/04/03 06:00:53;;;;;;;8.70;2.25;;;10.70;99.90;;;;;;4993079;28;20394;-51
2024/04/03 06:03:19;;;;;;;4.78;1.60;;;10.70;99.90;;;;;;4992958;28;20037;-49
2024/04/03 06:05:46;;;;;;;5.82;3.03;;;10.70;99.90;;;;;;4993139;28;20109;-46
2024/04/03 06:08:11;;;;;;;6.97;1.90;;;10.70;99.90;;;;;;4992096;28;20042;-46
2024/04/03 06:10:38;;;;;;;2.85;1.90;;;10.70;99.90;;;;;;4992915;28;20117;-46
2024/04/03 06:13:05;;;;;;;6.93;1.88;;;10.70;99.90;;;;;;4992858;28;20026;-46
2024/04/03 06:15:31;;;;;;;9.38;2.13;;;10.70;99.90;;;;;;4993141;28;20026;-47
2024/04/03 06:17:57;;;;;;;5.55;2.00;;;10.80;99.90;;;;;;4993336;28;20030;-46
2024/04/03 06:20:23;;;;;;;5.38;2.38;;;10.70;99.90;;;;;;4993170;28;20493;-48
2024/04/03 06:22:48;;;;;;;4.07;1.90;;;10.80;99.90;;;;;;4993139;28;20085;-46
2024/04/03 06:25:14;;;;;;;5.35;1.90;;;10.70;99.90;;;;;;4993523;28;20410;-48
2024/04/03 06:27:42;;;;;;;5.47;2.03;;;10.70;99.90;;;;;;4992938;28;20040;-45
2024/04/03 06:30:07;;;;;;;5.82;2.22;;;10.70;99.90;;;;;;4992649;28;20030;-47
2024/04/03 06:32:33;;;;;;;4.53;2.22;;;10.70;99.90;;;;;;4992883;28;20022;-47
2024/04/03 06:34:59;;;;;;;6.00;2.08;;;10.70;99.90;;;;;;4992539;28;20061;-48
2024/04/03 06:37:24;;;;;;;5.13;1.95;;;10.80;99.90;;;;;;4992519;28;20035;-49
2024/04/03 06:39:50;;;;;;;2.50;1.80;;;10.80;99.90;;;;;;4992410;28;20030;-48
2024/04/03 06:42:16;;;;;;;6.35;1.95;;;10.90;99.90;;;;;;4992668;28;20030;-44
2024/04/03 06:44:41;;;;;;;6.97;1.90;;;10.80;99.90;;;;;;4974821;28;20161;-50
2024/04/03 06:47:07;;;;;;;4.30;2.38;;;10.80;99.90;;;;;;4975014;28;20029;-47
2024/04/03 06:49:32;;;;;;;5.70;2.20;;;10.90;99.90;;;;;;4992469;28;20469;-49
2024/04/03 06:51:58;;;;;;;6.78;1.85;;;10.90;99.90;;;;;;4992178;28;20035;-49
2024/04/03 06:54:24;;;;;;;7.10;1.65;;;10.90;99.90;;;;;;4992319;28;20026;-44
2024/04/03 06:56:50;;;;;;;6.15;1.85;;;10.80;99.90;;;;;;4992628;28;20046;-51
2024/04/03 06:59:15;;;;;;;4.68;1.80;;;10.80;99.90;;;;;;4992068;28;20030;-51
2024/04/03 07:01:41;;;;;;;6.55;1.92;;;10.70;99.90;;;;;;4992319;28;20073;-51
2024/04/03 07:04:06;;;;;;;6.80;1.90;;;10.70;99.90;;;;;;4992317;28;20414;-44
2024/04/03 07:06:33;;;;;;;7.18;2.33;;;10.70;99.90;;;;;;4992022;28;20041;-52
2024/04/03 07:08:59;;;;;;;6.60;2.97;;;10.80;99.90;;;;;;4992192;28;20050;-48
2024/04/03 07:11:24;;;;;;;8.23;3.00;;;10.70;99.90;;;;;;4974748;28;20544;-50
2024/04/03 07:13:50;;;;;;;6.95;2.20;;;10.70;99.90;;;;;;4992653;28;20022;-49
2024/04/03 07:16:15;;;;;;;9.30;2.20;;;10.70;99.90;;;;;;4992265;28;20071;-49
2024/04/03 07:18:41;;;;;;;13.57;2.70;;;10.70;99.90;;;;;;4992200;28;20187;-45
2024/04/03 07:21:08;;;;;;;5.10;2.10;;;10.70;99.90;;;;;;4995988;28;20027;-52
2024/04/03 07:23:34;;;;;;;3.47;1.90;;;10.60;99.90;;;;;;4996003;28;20470;-43
2024/04/03 07:25:59;;;;;;;2.63;1.65;;;10.70;99.90;;;;;;4996090;28;20517;-46
2024/04/03 07:28:29;;;;;;;10.23;1.83;;;10.70;99.90;;;;;;4995560;28;20026;-48
2024/04/03 07:30:57;;;;;;;7.95;2.22;;;10.60;99.90;;;;;;4995828;28;20026;-46
2024/04/03 07:33:22;;;;;;;3.72;2.05;;;10.60;99.90;;;;;;4977997;28;20545;-47
2024/04/03 07:35:49;;;;;;;4.57;1.85;;;10.60;99.90;;;;;;4995681;28;20058;-45
2024/04/03 07:38:15;;;;;;;4.47;1.60;;;10.50;99.90;;;;;;4995705;28;20081;-46
2024/04/03 07:40:44;;;;;;;6.97;2.13;;;10.50;99.90;;;;;;4995737;28;20030;-46
2024/04/03 07:43:10;;;;;;;7.60;1.75;;;10.60;99.90;;;;;;4995702;28;20110;-46
2024/04/03 07:45:35;;;;;;;2.33;1.95;;;10.60;99.90;;;;;;4995746;28;20062;-48
2024/04/03 07:48:01;;;;;;;3.90;1.80;;;10.50;99.90;;;;;;4995189;28;20105;-46
2024/04/03 07:50:28;;;;;;;3.75;1.70;;;10.60;99.90;;;;;;4995400;28;20065;-46
2024/04/03 07:52:53;;;;;;;3.88;1.60;;;10.60;99.90;;;;;;4995528;28;20022;-44
2024/04/03 07:55:19;;;;;;;10.98;2.00;;;10.50;99.90;;;;;;4995472;28;20027;-48
2024/04/03 07:57:44;;;;;;;2.75;1.77;;;10.60;99.90;;;;;;4995187;28;20580;-49
2024/04/03 08:00:10;;;;;;;6.95;2.08;;;10.60;99.90;;;;;;4995304;28;20398;-48
2024/04/03 08:02:37;;;;;;;5.05;1.92;;;10.60;99.90;;;;;;4995194;28;20141;-46
2024/04/03 08:05:08;;;;;;;3.88;1.58;;;10.50;99.90;;;;;;4995616;28;20445;-45
2024/04/03 08:07:33;;;;;;;4.82;2.35;;;10.50;99.90;;;;;;4996161;28;20026;-48
2024/04/03 08:10:07;;;;;;;3.15;1.80;;;10.40;99.90;;;;;;4996626;28;20081;-48
2024/04/03 08:12:33;;;;;;;6.55;2.35;;;10.40;99.90;;;;;;4995907;28;20031;-51
2024/04/03 08:14:59;;;;;;;5.00;1.70;;;10.50;99.90;;;;;;4996515;28;20034;-51
2024/04/03 08:17:26;;;;;;;4.90;2.00;;;10.50;99.90;;;;;;4995006;28;20138;-50
2024/04/03 08:19:52;;;;;;;2.88;2.22;;;10.60;99.90;;;;;;4994726;28;20033;-48
2024/04/03 08:22:19;;;;;;;6.15;2.22;;;10.60;99.90;;;;;;4994661;28;20117;-44
2024/04/03 08:24:45;;;;;;;5.50;2.00;;;10.60;99.90;;;;;;4994899;28;20033;-45
2024/04/03 08:27:11;;;;;;;3.22;2.13;;;10.60;99.90;;;;;;4994695;28;20417;-46
2024/04/03 08:29:39;;;;;;;6.53;2.35;;;10.60;99.90;;;;;;4994512;28;20034;-49
2024/04/03 08:32:06;;;;;;;6.45;2.25;;;10.60;99.90;;;;;;4994111;28;20026;-47
2024/04/03 08:34:32;;;;;;;3.85;2.55;;;10.60;99.90;;;;;;4994745;28;20023;-45
2024/04/03 08:36:58;;;;;;;5.15;2.63;;;10.60;99.90;;;;;;4994481;28;20022;-45
2024/04/03 08:39:24;;;;;;;5.13;2.05;;;10.60;99.90;;;;;;4994237;28;20084;-46
2024/04/03 08:41:53;;;;;;;6.00;2.17;;;10.60;99.90;;;;;;4977101;28;20070;-46
2024/04/03 08:44:20;;;;;;;4.68;2.30;;;10.70;99.90;;;;;;4994262;28;20145;-44
2024/04/03 08:46:48;;;;;;;6.65;2.13;;;10.70;99.90;;;;;;4994152;28;20042;-46
2024/04/03 08:49:17;;;;;;;6.93;1.92;;;10.70;99.90;;;;;;4994197;28;20033;-45
2024/04/03 08:52:00;;;;;;;9.07;2.35;;;10.70;99.90;;;;;;4976661;28;20030;-45
2024/04/03 08:54:27;;;;;;;5.88;2.13;;;10.80;99.90;;;;;;4994190;28;20030;-47
2024/04/03 08:56:54;;;;;;;4.97;1.80;;;10.90;99.90;;;;;;4994472;28;20038;-46
2024/04/03 08:59:22;;;;;;;3.05;1.92;;;10.90;99.90;;;;;;4993843;28;20038;-45
2024/04/03 09:01:51;;;;;;;6.13;1.80;;;10.90;99.90;;;;;;4993958;28;20041;-46
2024/04/03 09:04:18;;;;;;;5.25;2.25;;;11.10;99.90;;;;;;4976699;28;20034;-42
2024/04/03 09:06:44;;;;;;;7.20;2.50;;;11.10;99.90;;;;;;4994308;28;20034;-50
2024/04/03 09:09:19;;;;;;;5.20;2.05;;;11.10;99.90;;;;;;4993776;28;20029;-49
2024/04/03 09:11:47;;;;;;;4.85;1.58;;;11.20;99.90;;;;;;4994117;28;20025;-50
2024/04/03 09:14:21;;;;;;;4.15;1.90;;;11.20;99.90;;;;;;4993988;28;20035;-49
2024/04/03 09:16:47;;;;;;;3.33;2.03;;;11.30;99.90;;;;;;4993836;28;20040;-50
2024/04/03 09:19:13;;;;;;;7.32;2.15;;;11.40;99.90;;;;;;4993386;28;20120;-49
2024/04/03 09:21:40;;;;;;;3.42;1.90;;;11.40;99.90;;;;;;4993786;28;20026;-52
2024/04/03 09:24:07;;;;;;;5.47;1.95;;;11.50;99.90;;;;;;4993785;28;20109;-46
2024/04/03 09:26:32;;;;;;;3.50;1.77;;;11.50;99.90;;;;;;4993308;28;20030;-49
2024/04/03 09:29:05;;;;;;;5.47;2.33;;;11.60;99.90;;;;;;4993391;28;20101;-48
2024/04/03 09:31:30;;;;;;;5.03;2.42;;;11.70;99.90;;;;;;4977131;28;20077;-46
2024/04/03 09:33:56;;;;;;;8.30;2.67;;;11.80;99.90;;;;;;4993756;28;20030;-50
2024/04/03 09:36:22;;;;;;;2.72;1.80;;;11.90;99.90;;;;;;4993741;28;20113;-46
2024/04/03 09:38:49;;;;;;;5.15;2.13;;;12.00;99.90;;;;;;4996570;28;20030;-48
2024/04/03 09:41:15;;;;;;;5.50;2.63;;;12.20;99.90;;;;;;4994676;28;20033;-49
2024/04/03 09:43:44;;;;;;;4.78;2.40;;;12.30;99.90;;;;;;4986007;28;20038;-48
2024/04/03 09:46:16;;;;;;;9.05;2.67;;;12.30;99.90;;;;;;4993394;28;20520;-47
2024/04/03 09:48:47;;;;;;;9.68;2.40;;;12.30;99.90;;;;;;4974044;28;20055;-46
2024/04/03 09:51:12;;;;;;;5.55;2.38;;;12.40;99.90;;;;;;4974028;28;20024;-44
2024/04/03 09:53:39;;;;;;;6.75;2.30;;;12.30;99.90;;;;;;4974850;28;20049;-48
2024/04/03 09:56:05;;;;;;;7.03;2.33;;;12.40;99.90;;;;;;4975254;28;20027;-47
2024/04/03 09:58:35;;;;;;;6.05;1.80;;;12.40;99.90;;;;;;4973324;28;20034;-43
2024/04/03 10:01:04;;;;;;;7.78;1.95;;;12.50;99.90;;;;;;4974160;28;20026;-50
2024/04/03 10:03:32;;;;;;;4.15;1.63;;;12.80;99.90;;;;;;4974411;28;20383;-51
2024/04/03 10:06:05;;;;;;;2.72;2.03;;;12.90;99.90;;;;;;4973686;28;20151;-50
2024/04/03 10:08:50;;;;;;;2.85;1.50;;;13.10;99.90;;;;;;4973190;28;20026;-50
2024/04/03 10:11:16;;;;;;;4.15;1.58;;;13.20;99.90;;;;;;4973400;28;20022;-48
2024/04/03 10:13:46;;;;;;;4.82;1.70;;;13.30;99.90;;;;;;4973586;28;20081;-46
2024/04/03 10:16:13;;;;;;;2.38;1.15;;;13.20;99.90;;;;;;4955830;28;20375;-46
2024/04/03 10:18:41;;;;;;;10.32;1.38;;;13.30;99.90;;;;;;4972986;28;20483;-51
2024/04/03 10:21:10;;;;;;;6.93;1.40;;;13.20;99.90;;;;;;4955985;28;20037;-46
2024/04/03 10:23:43;;;;;;;4.15;1.40;;;13.10;99.90;;;;;;4974190;28;20055;-48
2024/04/03 10:26:13;;;;;;;4.40;1.75;;;13.00;99.90;;;;;;4986581;28;20043;-49
2024/04/03 10:28:40;;;;;;;2.85;1.38;;;13.00;99.90;;;;;;4972849;28;20062;-52
2024/04/03 10:31:07;;;;;;;5.68;1.70;;;13.00;99.90;;;;;;4980862;28;20022;-51
2024/04/03 10:33:32;;;;;;;2.65;1.67;;;12.90;99.90;;;;;;4978337;28;20034;-46
2024/04/03 10:35:58;;;;;;;2.78;1.90;;;12.90;99.90;;;;;;4991290;28;20028;-46
2024/04/03 10:38:24;;;;;;;2.03;1.50;;;12.80;99.90;;;;;;4990378;28;20118;-48
2024/04/03 10:40:50;;;;;;;6.38;2.25;;;12.80;99.90;;;;;;4977889;28;20502;-52
2024/04/03 10:43:16;;;;;;;2.50;1.50;;;12.80;99.90;;;;;;4983013;28;20026;-47
2024/04/03 10:45:51;;;;;;;5.72;1.58;;;12.80;99.90;;;;;;4989014;28;20491;-48
2024/04/03 10:48:19;;;;;;;2.97;1.30;;;12.80;99.90;;;;;;4975077;28;20043;-48
2024/04/03 10:50:46;;;;;;;3.03;1.70;;;12.70;99.90;;;;;;4980691;28;20057;-46
2024/04/03 10:53:12;;;;;;;4.65;1.70;;;12.80;99.90;;;;;;4991605;28;20097;-48
2024/04/03 10:55:39;;;;;;;2.47;1.40;;;12.70;99.90;;;;;;4977545;28;20037;-47
2024/04/03 10:58:05;;;;;;;3.47;1.38;;;12.70;99.90;;;;;;4954746;28;20088;-48
2024/04/03 11:00:35;;;;;;;7.65;1.50;;;12.70;99.90;;;;;;4955154;28;20034;-50
2024/04/03 11:03:05;;;;;;;2.78;1.35;;;12.80;99.90;;;;;;4955237;28;20027;-46
2024/04/03 11:05:32;;;;;;;2.03;1.40;;;12.80;99.90;;;;;;4973050;28;20549;-49
2024/04/03 11:07:58;;;;;;;4.20;1.13;;;12.80;99.90;;;;;;4987536;28;20065;-48
2024/04/03 11:10:25;;;;;;;5.28;1.85;;;12.90;99.90;;;;;;4992266;28;20065;-47
2024/04/03 11:13:02;;;;;;;3.22;1.38;;;12.80;99.90;;;;;;4992014;28;20030;-47
2024/04/03 11:15:27;;;;;;;1.95;0.93;;;12.80;99.90;;;;;;4962535;28;20109;-46
2024/04/03 11:17:53;;;;;;;3.47;1.10;;;12.70;99.90;;;;;;4972842;28;20434;-47
2024/04/03 11:20:19;;;;;;;9.20;4.82;;;12.70;99.90;;;;;;5018392;23;20132;-45
2024/04/03 11:22:45;;;;;;;6.88;4.03;;;12.60;99.90;;;;;;5011871;28;20025;-48
2024/04/03 11:25:12;;;;;;;44.75;24.05;;;12.50;99.90;;;;;;5011797;28;20030;-48
2024/04/03 11:27:39;;;;;;;2.50;1.65;;;12.50;99.90;;;;;;5009216;28;20049;-52
2024/04/03 11:30:06;;;;;;;3.35;0.88;;;12.50;99.90;;;;;;4980581;28;20027;-43
2024/04/03 11:32:31;;;;;;;2.60;1.20;;;12.50;99.90;;;;;;4985240;28;20050;-50
2024/04/03 11:34:58;;;;;;;1.23;0.80;;;12.50;99.90;;;;;;4987302;28;20025;-44
2024/04/03 11:37:23;;;;;;;1.20;0.90;;;12.50;99.90;;;;;;4971404;28;20110;-45
2024/04/03 11:39:49;;;;;;;1.13;1.05;;;12.60;99.90;;;;;;4969736;28;20122;-46
2024/04/03 11:42:14;;;;;;;1.85;1.13;;;12.60;99.90;;;;;;4970378;28;20026;-48
2024/04/03 11:44:40;;;;;;;5.60;1.42;;;12.60;99.90;;;;;;4979471;28;20074;-49
2024/04/03 11:47:05;;;;;;;1.52;0.98;;;12.60;99.90;;;;;;4991455;28;20031;-52
2024/04/03 11:49:31;;;;;;;3.13;1.27;;;12.70;99.90;;;;;;4963918;28;20027;-50
2024/04/03 11:51:56;;;;;;;3.03;1.25;;;12.70;99.90;;;;;;4983082;28;20027;-52
2024/04/03 11:54:22;;;;;;;3.22;1.10;;;12.80;99.90;;;;;;4952724;28;20034;-50
2024/04/03 11:56:47;;;;;;;2.38;1.55;;;12.80;99.90;;;;;;4979876;28;20029;-52
2024/04/03 11:59:13;;;;;;;3.58;1.73;;;12.80;99.90;;;;;;4977681;28;20031;-52
2024/04/03 12:01:39;;;;;;;2.53;1.70;;;12.80;99.90;;;;;;4970477;28;20027;-51
2024/04/03 12:04:04;;;;;;;2.83;1.40;;;12.80;99.90;;;;;;4971928;28;20517;-53
2024/04/03 12:06:30;;;;;;;1.30;1.20;;;12.80;99.90;;;;;;4973404;28;20052;-50
2024/04/03 12:08:56;;;;;;;1.95;1.27;;;12.80;99.90;;;;;;4967627;28;20034;-50
2024/04/03 12:11:22;;;;;;;1.95;1.10;;;12.80;99.90;;;;;;4968074;28;20022;-52
2024/04/03 12:13:48;;;;;;;2.00;1.35;;;12.80;99.90;;;;;;4978089;28;20054;-52
2024/04/03 12:16:19;;;;;;;3.00;1.60;;;12.80;99.90;;;;;;4979310;28;20035;-49
2024/04/03 12:18:49;;;;;;;3.70;1.27;;;12.70;99.90;;;;;;4994821;28;20377;-48
2024/04/03 12:21:16;;;;;;;3.40;1.08;;;12.70;99.90;;;;;;4994886;28;20033;-47
2024/04/03 12:23:42;;;;;;;2.78;1.20;;;12.60;99.90;;;;;;4994907;28;20069;-51
2024/04/03 12:26:13;;;;;;;1.58;1.05;;;12.60;99.90;;;;;;4981961;28;20035;-52
2024/04/03 12:28:40;;;;;;;2.10;1.20;;;12.60;99.90;;;;;;4981774;28;20027;-51
2024/04/03 12:31:06;;;;;;;2.17;1.40;;;12.60;99.90;;;;;;4994456;28;20101;-48
2024/04/03 12:33:32;;;;;;;2.58;1.20;;;12.60;99.90;;;;;;4987830;28;20034;-54
2024/04/03 12:35:57;;;;;;;1.65;1.33;;;12.50;99.90;;;;;;4975281;28;20046;-52
2024/04/03 12:38:23;;;;;;;1.40;1.30;;;12.40;99.90;;;;;;4974714;28;20544;-50
2024/04/03 12:40:49;;;;;;;3.38;1.40;;;12.40;99.90;;;;;;4956968;28;20030;-50
2024/04/03 12:43:14;;;;;;;3.67;1.98;;;12.40;99.90;;;;;;4976831;28;20122;-51
2024/04/03 12:45:40;;;;;;;3.42;1.60;;;12.40;99.90;;;;;;4976513;28;20030;-54
2024/04/03 12:48:07;;;;;;;1.88;1.38;;;12.40;99.90;;;;;;4975346;28;20113;-49